sensor_id;sensor_type;location;lat;lon;timestamp;P1;durP1;ratioP1;P2;durP2;ratioP2
49860;SDS011;35761;48.826;9.238;2023-03-20T00:02:02;1.45;;;1.00;;
49860;SDS011;35761;48.826;9.238;2023-03-20T00:04:32;1.92;;;1.10;;
49860;SDS011;35761;48.826;9.238;2023-03-20T00:07:02;1.55;;;0.90;;
49860;SDS011;35761;48.826;9.238;2023-03-20T00:09:35;2.22;;;1.00;;
49860;SDS011;35761;48.826;9.238;2023-03-20T00:12:04;1.00;;;0.90;;
49860;SDS011;35761;48.826;9.238;2023-03-20T00:14:34;1.20;;;0.85;;
49860;SDS011;35761;48.826;9.238;2023-03-20T00:17:04;1.40;;;0.98;;
49860;SDS011;35761;48.826;9.238;2023-03-20T00:19:37;2.05;;;1.02;;
49860;SDS011;35761;48.826;9.238;2023-03-20T00:22:09;2.50;;;1.00;;
49860;SDS011;35761;48.826;9.238;2023-03-20T00:24:38;1.25;;;0.90;;
49860;SDS011;35761;48.826;9.238;2023-03-20T00:27:08;2.17;;;1.13;;
49860;SDS011;35761;48.826;9.238;2023-03-20T00:29:38;1.58;;;0.88;;
49860;SDS011;35761;48.826;9.238;2023-03-20T00:32:07;1.88;;;1.00;;
49860;SDS011;35761;48.826;9.238;2023-03-20T00:34:39;2.00;;;1.23;;
49860;SDS011;35761;48.826;9.238;2023-03-20T00:37:09;1.38;;;1.00;;
49860;SDS011;35761;48.826;9.238;2023-03-20T00:39:38;2.60;;;1.02;;
49860;SDS011;35761;48.826;9.238;2023-03-20T00:42:08;2.47;;;1.20;;
49860;SDS011;35761;48.826;9.238;2023-03-20T00:44:43;2.13;;;0.85;;
49860;SDS011;35761;48.826;9.238;2023-03-20T00:47:16;3.42;;;1.40;;
49860;SDS011;35761;48.826;9.238;2023-03-20T00:49:47;2.92;;;1.60;;
49860;SDS011;35761;48.826;9.238;2023-03-20T00:52:20;2.92;;;1.25;;
49860;SDS011;35761;48.826;9.238;2023-03-20T00:54:50;2.35;;;1.40;;
49860;SDS011;35761;48.826;9.238;2023-03-20T00:57:20;4.35;;;1.40;;
49860;SDS011;35761;48.826;9.238;2023-03-20T00:59:52;2.20;;;1.40;;
49860;SDS011;35761;48.826;9.238;2023-03-20T01:02:24;4.57;;;1.80;;
49860;SDS011;35761;48.826;9.238;2023-03-20T01:04:55;2.67;;;1.48;;
49860;SDS011;35761;48.826;9.238;2023-03-20T01:07:26;2.97;;;1.80;;
49860;SDS011;35761;48.826;9.238;2023-03-20T01:09:55;3.67;;;1.90;;
49860;SDS011;35761;48.826;9.238;2023-03-20T01:12:23;3.70;;;2.10;;
49860;SDS011;35761;48.826;9.238;2023-03-20T01:14:54;4.63;;;1.83;;
49860;SDS011;35761;48.826;9.238;2023-03-20T01:17:24;3.20;;;1.92;;
49860;SDS011;35761;48.826;9.238;2023-03-20T01:19:53;4.63;;;2.00;;
49860;SDS011;35761;48.826;9.238;2023-03-20T01:22:22;3.78;;;1.88;;
49860;SDS011;35761;48.826;9.238;2023-03-20T01:24:52;3.05;;;1.98;;
49860;SDS011;35761;48.826;9.238;2023-03-20T01:27:21;3.97;;;2.10;;
49860;SDS011;35761;48.826;9.238;2023-03-20T01:29:50;4.10;;;2.25;;
49860;SDS011;35761;48.826;9.238;2023-03-20T01:32:18;3.63;;;2.42;;
49860;SDS011;35761;48.826;9.238;2023-03-20T01:34:49;3.90;;;2.50;;
49860;SDS011;35761;48.826;9.238;2023-03-20T01:37:22;4.32;;;2.45;;
49860;SDS011;35761;48.826;9.238;2023-03-20T01:39:55;8.73;;;2.60;;
49860;SDS011;35761;48.826;9.238;2023-03-20T01:42:25;4.30;;;2.58;;
49860;SDS011;35761;48.826;9.238;2023-03-20T01:44:54;3.33;;;1.90;;
49860;SDS011;35761;48.826;9.238;2023-03-20T01:47:23;3.15;;;2.15;;
49860;SDS011;35761;48.826;9.238;2023-03-20T01:52:49;3.63;;;2.00;;
49860;SDS011;35761;48.826;9.238;2023-03-20T01:55:21;4.95;;;2.67;;
49860;SDS011;35761;48.826;9.238;2023-03-20T01:57:56;4.18;;;2.03;;
49860;SDS011;35761;48.826;9.238;2023-03-20T02:00:30;3.88;;;2.08;;
49860;SDS011;35761;48.826;9.238;2023-03-20T02:03:03;5.57;;;2.00;;
49860;SDS011;35761;48.826;9.238;2023-03-20T02:05:53;5.75;;;2.20;;
49860;SDS011;35761;48.826;9.238;2023-03-20T02:08:27;6.35;;;2.70;;
49860;SDS011;35761;48.826;9.238;2023-03-20T02:11:01;6.43;;;2.80;;
49860;SDS011;35761;48.826;9.238;2023-03-20T02:13:31;6.05;;;2.70;;
49860;SDS011;35761;48.826;9.238;2023-03-20T02:16:02;3.72;;;2.35;;
49860;SDS011;35761;48.826;9.238;2023-03-20T02:18:54;4.13;;;2.22;;
49860;SDS011;35761;48.826;9.238;2023-03-20T02:24:27;4.32;;;2.10;;
49860;SDS011;35761;48.826;9.238;2023-03-20T02:27:27;3.40;;;2.30;;
49860;SDS011;35761;48.826;9.238;2023-03-20T02:39:11;3.92;;;1.73;;
49860;SDS011;35761;48.826;9.238;2023-03-20T02:41:46;3.55;;;1.90;;
49860;SDS011;35761;48.826;9.238;2023-03-20T02:44:20;5.28;;;1.70;;
49860;SDS011;35761;48.826;9.238;2023-03-20T02:46:56;4.10;;;1.73;;
49860;SDS011;35761;48.826;9.238;2023-03-20T02:49:32;3.10;;;1.45;;
49860;SDS011;35761;48.826;9.238;2023-03-20T02:52:18;2.38;;;1.30;;
49860;SDS011;35761;48.826;9.238;2023-03-20T02:54:52;1.92;;;1.40;;
49860;SDS011;35761;48.826;9.238;2023-03-20T02:57:28;5.07;;;1.58;;
49860;SDS011;35761;48.826;9.238;2023-03-20T03:00:05;2.20;;;1.10;;
49860;SDS011;35761;48.826;9.238;2023-03-20T03:02:39;1.50;;;1.20;;
49860;SDS011;35761;48.826;9.238;2023-03-20T03:05:12;1.77;;;1.13;;
49860;SDS011;35761;48.826;9.238;2023-03-20T03:07:44;1.80;;;1.30;;
49860;SDS011;35761;48.826;9.238;2023-03-20T03:10:16;1.83;;;1.10;;
49860;SDS011;35761;48.826;9.238;2023-03-20T03:12:47;1.80;;;1.20;;
49860;SDS011;35761;48.826;9.238;2023-03-20T03:15:18;2.20;;;1.10;;
49860;SDS011;35761;48.826;9.238;2023-03-20T03:17:49;1.38;;;0.73;;
49860;SDS011;35761;48.826;9.238;2023-03-20T03:20:20;0.95;;;0.85;;
49860;SDS011;35761;48.826;9.238;2023-03-20T03:22:50;1.70;;;0.90;;
49860;SDS011;35761;48.826;9.238;2023-03-20T03:25:22;1.55;;;1.02;;
49860;SDS011;35761;48.826;9.238;2023-03-20T03:27:55;1.55;;;0.80;;
49860;SDS011;35761;48.826;9.238;2023-03-20T03:30:28;1.27;;;0.93;;
49860;SDS011;35761;48.826;9.238;2023-03-20T03:33:05;1.55;;;0.90;;
49860;SDS011;35761;48.826;9.238;2023-03-20T03:35:40;1.40;;;0.90;;
49860;SDS011;35761;48.826;9.238;2023-03-20T03:38:21;1.10;;;0.75;;
49860;SDS011;35761;48.826;9.238;2023-03-20T03:40:57;1.60;;;1.15;;
49860;SDS011;35761;48.826;9.238;2023-03-20T03:43:34;1.33;;;0.85;;
49860;SDS011;35761;48.826;9.238;2023-03-20T03:46:11;4.70;;;1.98;;
49860;SDS011;35761;48.826;9.238;2023-03-20T03:48:44;1.70;;;0.82;;
49860;SDS011;35761;48.826;9.238;2023-03-20T03:51:16;1.98;;;1.15;;
49860;SDS011;35761;48.826;9.238;2023-03-20T03:53:57;0.70;;;0.70;;
49860;SDS011;35761;48.826;9.238;2023-03-20T03:56:29;1.20;;;0.82;;
49860;SDS011;35761;48.826;9.238;2023-03-20T03:58:59;1.30;;;0.77;;
49860;SDS011;35761;48.826;9.238;2023-03-20T04:01:29;0.68;;;0.57;;
49860;SDS011;35761;48.826;9.238;2023-03-20T04:04:02;0.82;;;0.60;;
49860;SDS011;35761;48.826;9.238;2023-03-20T04:06:33;1.25;;;0.80;;
49860;SDS011;35761;48.826;9.238;2023-03-20T04:09:04;0.68;;;0.50;;
49860;SDS011;35761;48.826;9.238;2023-03-20T04:11:35;1.00;;;0.60;;
49860;SDS011;35761;48.826;9.238;2023-03-20T04:14:03;1.65;;;0.75;;
49860;SDS011;35761;48.826;9.238;2023-03-20T04:16:32;0.65;;;0.57;;
49860;SDS011;35761;48.826;9.238;2023-03-20T04:19:02;0.88;;;0.70;;
49860;SDS011;35761;48.826;9.238;2023-03-20T04:21:30;1.60;;;0.68;;
49860;SDS011;35761;48.826;9.238;2023-03-20T04:23:59;0.60;;;0.60;;
49860;SDS011;35761;48.826;9.238;2023-03-20T04:26:28;21.20;;;12.95;;
49860;SDS011;35761;48.826;9.238;2023-03-20T04:28:59;40.67;;;25.17;;
49860;SDS011;35761;48.826;9.238;2023-03-20T04:31:39;3.88;;;2.33;;
49860;SDS011;35761;48.826;9.238;2023-03-20T04:34:31;2.35;;;1.10;;
49860;SDS011;35761;48.826;9.238;2023-03-20T04:37:18;5.10;;;1.10;;
49860;SDS011;35761;48.826;9.238;2023-03-20T04:39:58;1.30;;;0.65;;
49860;SDS011;35761;48.826;9.238;2023-03-20T04:42:28;1.10;;;0.88;;
49860;SDS011;35761;48.826;9.238;2023-03-20T04:45:02;5.60;;;0.95;;
49860;SDS011;35761;48.826;9.238;2023-03-20T04:47:34;1.27;;;0.90;;
49860;SDS011;35761;48.826;9.238;2023-03-20T04:50:04;1.40;;;0.95;;
49860;SDS011;35761;48.826;9.238;2023-03-20T04:52:34;2.42;;;0.82;;
49860;SDS011;35761;48.826;9.238;2023-03-20T04:55:04;1.38;;;0.90;;
49860;SDS011;35761;48.826;9.238;2023-03-20T04:57:34;1.45;;;0.90;;
49860;SDS011;35761;48.826;9.238;2023-03-20T05:00:05;1.00;;;0.90;;
49860;SDS011;35761;48.826;9.238;2023-03-20T05:02:35;1.25;;;0.90;;
49860;SDS011;35761;48.826;9.238;2023-03-20T05:05:04;3.85;;;0.82;;
49860;SDS011;35761;48.826;9.238;2023-03-20T05:07:35;1.73;;;1.35;;
49860;SDS011;35761;48.826;9.238;2023-03-20T05:10:07;6.13;;;2.60;;
49860;SDS011;35761;48.826;9.238;2023-03-20T05:12:57;11.35;;;5.95;;
49860;SDS011;35761;48.826;9.238;2023-03-20T05:15:44;3.97;;;2.25;;
49860;SDS011;35761;48.826;9.238;2023-03-20T05:18:42;1.52;;;0.98;;
49860;SDS011;35761;48.826;9.238;2023-03-20T05:21:29;3.88;;;0.70;;
49860;SDS011;35761;48.826;9.238;2023-03-20T05:23:57;0.98;;;0.73;;
49860;SDS011;35761;48.826;9.238;2023-03-20T05:26:56;0.90;;;0.80;;
49860;SDS011;35761;48.826;9.238;2023-03-20T05:29:39;1.60;;;1.00;;
49860;SDS011;35761;48.826;9.238;2023-03-20T05:32:21;8.05;;;0.80;;
49860;SDS011;35761;48.826;9.238;2023-03-20T05:35:03;1.60;;;0.75;;
49860;SDS011;35761;48.826;9.238;2023-03-20T05:37:46;2.40;;;1.00;;
49860;SDS011;35761;48.826;9.238;2023-03-20T05:40:26;1.65;;;0.80;;
49860;SDS011;35761;48.826;9.238;2023-03-20T05:43:14;7.45;;;1.17;;
49860;SDS011;35761;48.826;9.238;2023-03-20T05:46:21;1.35;;;1.02;;
49860;SDS011;35761;48.826;9.238;2023-03-20T05:49:26;1.25;;;1.00;;
49860;SDS011;35761;48.826;9.238;2023-03-20T05:52:04;2.17;;;1.02;;
49860;SDS011;35761;48.826;9.238;2023-03-20T05:54:56;3.67;;;0.90;;
49860;SDS011;35761;48.826;9.238;2023-03-20T05:57:37;2.72;;;1.20;;
49860;SDS011;35761;48.826;9.238;2023-03-20T06:00:25;7.35;;;1.20;;
49860;SDS011;35761;48.826;9.238;2023-03-20T06:03:16;1.80;;;1.10;;
49860;SDS011;35761;48.826;9.238;2023-03-20T06:05:57;2.70;;;1.10;;
49860;SDS011;35761;48.826;9.238;2023-03-20T06:08:26;1.85;;;1.17;;
49860;SDS011;35761;48.826;9.238;2023-03-20T06:10:58;4.15;;;1.45;;
49860;SDS011;35761;48.826;9.238;2023-03-20T06:13:32;6.97;;;1.40;;
49860;SDS011;35761;48.826;9.238;2023-03-20T06:16:02;1.98;;;0.93;;
49860;SDS011;35761;48.826;9.238;2023-03-20T06:18:31;2.42;;;1.52;;
49860;SDS011;35761;48.826;9.238;2023-03-20T06:21:01;3.58;;;1.35;;
49860;SDS011;35761;48.826;9.238;2023-03-20T06:23:31;5.53;;;1.15;;
49860;SDS011;35761;48.826;9.238;2023-03-20T06:26:01;5.90;;;1.20;;
49860;SDS011;35761;48.826;9.238;2023-03-20T06:28:41;3.58;;;1.58;;
49860;SDS011;35761;48.826;9.238;2023-03-20T06:31:10;1.38;;;1.00;;
49860;SDS011;35761;48.826;9.238;2023-03-20T06:33:39;2.20;;;1.10;;
49860;SDS011;35761;48.826;9.238;2023-03-20T06:36:10;5.20;;;1.35;;
49860;SDS011;35761;48.826;9.238;2023-03-20T06:38:39;4.40;;;1.00;;
49860;SDS011;35761;48.826;9.238;2023-03-20T06:41:12;2.47;;;1.00;;
49860;SDS011;35761;48.826;9.238;2023-03-20T06:44:00;3.50;;;1.35;;
49860;SDS011;35761;48.826;9.238;2023-03-20T06:46:49;3.90;;;1.40;;
49860;SDS011;35761;48.826;9.238;2023-03-20T06:49:18;3.33;;;1.48;;
49860;SDS011;35761;48.826;9.238;2023-03-20T06:51:48;2.20;;;1.48;;
49860;SDS011;35761;48.826;9.238;2023-03-20T06:54:23;3.45;;;1.58;;
49860;SDS011;35761;48.826;9.238;2023-03-20T06:56:53;5.28;;;1.67;;
49860;SDS011;35761;48.826;9.238;2023-03-20T06:59:22;5.88;;;1.85;;
49860;SDS011;35761;48.826;9.238;2023-03-20T07:01:55;3.55;;;1.83;;
49860;SDS011;35761;48.826;9.238;2023-03-20T07:04:25;5.85;;;1.73;;
49860;SDS011;35761;48.826;9.238;2023-03-20T07:06:59;3.65;;;1.80;;
49860;SDS011;35761;48.826;9.238;2023-03-20T07:09:29;5.05;;;1.80;;
49860;SDS011;35761;48.826;9.238;2023-03-20T07:11:58;4.88;;;2.00;;
49860;SDS011;35761;48.826;9.238;2023-03-20T07:14:30;4.00;;;1.70;;
49860;SDS011;35761;48.826;9.238;2023-03-20T07:17:03;7.22;;;2.05;;
49860;SDS011;35761;48.826;9.238;2023-03-20T07:19:32;3.45;;;1.77;;
49860;SDS011;35761;48.826;9.238;2023-03-20T07:22:05;4.97;;;1.65;;
49860;SDS011;35761;48.826;9.238;2023-03-20T07:27:09;4.05;;;1.58;;
49860;SDS011;35761;48.826;9.238;2023-03-20T07:29:37;3.45;;;1.60;;
49860;SDS011;35761;48.826;9.238;2023-03-20T07:32:11;3.38;;;1.75;;
49860;SDS011;35761;48.826;9.238;2023-03-20T07:34:46;5.00;;;2.03;;
49860;SDS011;35761;48.826;9.238;2023-03-20T07:37:18;5.78;;;1.77;;
49860;SDS011;35761;48.826;9.238;2023-03-20T07:39:58;4.57;;;1.75;;
49860;SDS011;35761;48.826;9.238;2023-03-20T07:42:40;2.58;;;1.50;;
49860;SDS011;35761;48.826;9.238;2023-03-20T07:45:26;2.70;;;1.25;;
49860;SDS011;35761;48.826;9.238;2023-03-20T07:47:55;2.50;;;1.40;;
49860;SDS011;35761;48.826;9.238;2023-03-20T07:50:24;2.03;;;1.25;;
49860;SDS011;35761;48.826;9.238;2023-03-20T07:52:54;1.52;;;1.10;;
49860;SDS011;35761;48.826;9.238;2023-03-20T07:55:23;3.30;;;1.25;;
49860;SDS011;35761;48.826;9.238;2023-03-20T07:57:52;9.10;;;1.40;;
49860;SDS011;35761;48.826;9.238;2023-03-20T08:00:21;2.88;;;1.67;;
49860;SDS011;35761;48.826;9.238;2023-03-20T08:02:53;4.53;;;1.33;;
49860;SDS011;35761;48.826;9.238;2023-03-20T08:05:23;2.42;;;1.40;;
49860;SDS011;35761;48.826;9.238;2023-03-20T08:07:54;7.72;;;1.38;;
49860;SDS011;35761;48.826;9.238;2023-03-20T08:10:23;5.72;;;1.50;;
49860;SDS011;35761;48.826;9.238;2023-03-20T08:12:52;1.75;;;1.33;;
49860;SDS011;35761;48.826;9.238;2023-03-20T08:15:21;1.55;;;1.30;;
49860;SDS011;35761;48.826;9.238;2023-03-20T08:17:49;2.08;;;1.30;;
49860;SDS011;35761;48.826;9.238;2023-03-20T08:20:18;3.25;;;1.02;;
49860;SDS011;35761;48.826;9.238;2023-03-20T08:22:47;2.92;;;1.45;;
49860;SDS011;35761;48.826;9.238;2023-03-20T08:25:17;4.15;;;2.40;;
49860;SDS011;35761;48.826;9.238;2023-03-20T08:27:47;4.72;;;1.38;;
49860;SDS011;35761;48.826;9.238;2023-03-20T08:30:16;3.42;;;1.48;;
49860;SDS011;35761;48.826;9.238;2023-03-20T08:32:45;2.13;;;1.33;;
49860;SDS011;35761;48.826;9.238;2023-03-20T08:35:13;1.92;;;1.15;;
49860;SDS011;35761;48.826;9.238;2023-03-20T08:37:58;2.65;;;1.10;;
49860;SDS011;35761;48.826;9.238;2023-03-20T08:40:28;2.50;;;1.25;;
49860;SDS011;35761;48.826;9.238;2023-03-20T08:42:57;2.28;;;1.30;;
49860;SDS011;35761;48.826;9.238;2023-03-20T08:45:26;1.73;;;1.17;;
49860;SDS011;35761;48.826;9.238;2023-03-20T08:47:54;3.08;;;1.40;;
49860;SDS011;35761;48.826;9.238;2023-03-20T08:50:23;1.90;;;1.15;;
49860;SDS011;35761;48.826;9.238;2023-03-20T08:52:52;2.53;;;1.30;;
49860;SDS011;35761;48.826;9.238;2023-03-20T08:55:20;1.73;;;1.15;;
49860;SDS011;35761;48.826;9.238;2023-03-20T08:57:51;1.23;;;1.00;;
49860;SDS011;35761;48.826;9.238;2023-03-20T09:00:20;2.35;;;1.48;;
49860;SDS011;35761;48.826;9.238;2023-03-20T09:02:49;4.47;;;1.30;;
49860;SDS011;35761;48.826;9.238;2023-03-20T09:05:18;3.92;;;1.42;;
49860;SDS011;35761;48.826;9.238;2023-03-20T09:07:46;3.75;;;1.55;;
49860;SDS011;35761;48.826;9.238;2023-03-20T09:10:16;2.45;;;1.23;;
49860;SDS011;35761;48.826;9.238;2023-03-20T09:12:45;1.60;;;1.40;;
49860;SDS011;35761;48.826;9.238;2023-03-20T09:15:15;2.55;;;1.15;;
49860;SDS011;35761;48.826;9.238;2023-03-20T09:17:44;2.30;;;1.50;;
49860;SDS011;35761;48.826;9.238;2023-03-20T09:20:13;4.88;;;1.50;;
49860;SDS011;35761;48.826;9.238;2023-03-20T09:22:41;1.70;;;1.35;;
49860;SDS011;35761;48.826;9.238;2023-03-20T09:25:10;5.15;;;1.50;;
49860;SDS011;35761;48.826;9.238;2023-03-20T09:27:39;2.05;;;1.58;;
49860;SDS011;35761;48.826;9.238;2023-03-20T09:30:08;3.45;;;1.33;;
49860;SDS011;35761;48.826;9.238;2023-03-20T09:32:39;5.10;;;2.50;;
49860;SDS011;35761;48.826;9.238;2023-03-20T09:35:08;1.75;;;1.30;;
49860;SDS011;35761;48.826;9.238;2023-03-20T09:37:38;2.85;;;1.25;;
49860;SDS011;35761;48.826;9.238;2023-03-20T09:40:07;2.38;;;1.40;;
49860;SDS011;35761;48.826;9.238;2023-03-20T09:42:48;2.13;;;1.30;;
49860;SDS011;35761;48.826;9.238;2023-03-20T09:45:35;2.63;;;1.40;;
49860;SDS011;35761;48.826;9.238;2023-03-20T09:48:12;2.33;;;1.08;;
49860;SDS011;35761;48.826;9.238;2023-03-20T09:50:45;1.83;;;0.98;;
49860;SDS011;35761;48.826;9.238;2023-03-20T09:53:19;1.48;;;1.23;;
49860;SDS011;35761;48.826;9.238;2023-03-20T09:55:52;3.20;;;1.20;;
49860;SDS011;35761;48.826;9.238;2023-03-20T09:58:22;1.38;;;1.00;;
49860;SDS011;35761;48.826;9.238;2023-03-20T10:00:54;2.22;;;1.20;;
49860;SDS011;35761;48.826;9.238;2023-03-20T10:03:27;1.38;;;0.90;;
49860;SDS011;35761;48.826;9.238;2023-03-20T10:06:03;4.18;;;1.40;;
49860;SDS011;35761;48.826;9.238;2023-03-20T10:08:34;4.53;;;1.38;;
49860;SDS011;35761;48.826;9.238;2023-03-20T10:11:05;5.93;;;1.48;;
49860;SDS011;35761;48.826;9.238;2023-03-20T10:13:47;2.28;;;1.17;;
49860;SDS011;35761;48.826;9.238;2023-03-20T10:16:25;4.20;;;1.30;;
49860;SDS011;35761;48.826;9.238;2023-03-20T10:19:00;1.10;;;1.00;;
49860;SDS011;35761;48.826;9.238;2023-03-20T10:21:36;2.85;;;1.50;;
49860;SDS011;35761;48.826;9.238;2023-03-20T10:24:10;3.90;;;1.45;;
49860;SDS011;35761;48.826;9.238;2023-03-20T10:26:45;2.40;;;1.60;;
49860;SDS011;35761;48.826;9.238;2023-03-20T10:29:21;5.93;;;1.75;;
49860;SDS011;35761;48.826;9.238;2023-03-20T10:31:56;3.95;;;2.22;;
49860;SDS011;35761;48.826;9.238;2023-03-20T10:34:38;5.68;;;2.17;;
49860;SDS011;35761;48.826;9.238;2023-03-20T10:37:19;2.83;;;1.90;;
49860;SDS011;35761;48.826;9.238;2023-03-20T10:39:53;4.25;;;2.28;;
49860;SDS011;35761;48.826;9.238;2023-03-20T10:42:31;2.63;;;1.70;;
49860;SDS011;35761;48.826;9.238;2023-03-20T10:45:03;4.15;;;2.42;;
49860;SDS011;35761;48.826;9.238;2023-03-20T10:47:35;3.78;;;2.30;;
49860;SDS011;35761;48.826;9.238;2023-03-20T10:50:09;3.70;;;2.20;;
49860;SDS011;35761;48.826;9.238;2023-03-20T10:52:42;3.42;;;2.30;;
49860;SDS011;35761;48.826;9.238;2023-03-20T10:55:14;4.68;;;2.40;;
49860;SDS011;35761;48.826;9.238;2023-03-20T10:57:45;5.93;;;2.15;;
49860;SDS011;35761;48.826;9.238;2023-03-20T11:00:18;7.35;;;3.45;;
49860;SDS011;35761;48.826;9.238;2023-03-20T11:02:51;9.27;;;4.22;;
49860;SDS011;35761;48.826;9.238;2023-03-20T11:05:22;7.65;;;2.88;;
49860;SDS011;35761;48.826;9.238;2023-03-20T11:07:59;5.75;;;3.60;;
49860;SDS011;35761;48.826;9.238;2023-03-20T11:10:30;6.18;;;3.47;;
49860;SDS011;35761;48.826;9.238;2023-03-20T11:13:03;6.78;;;3.70;;
49860;SDS011;35761;48.826;9.238;2023-03-20T11:15:42;8.02;;;3.63;;
49860;SDS011;35761;48.826;9.238;2023-03-20T11:18:11;7.60;;;4.53;;
49860;SDS011;35761;48.826;9.238;2023-03-20T11:20:44;6.88;;;4.07;;
49860;SDS011;35761;48.826;9.238;2023-03-20T11:23:14;6.93;;;4.33;;
49860;SDS011;35761;48.826;9.238;2023-03-20T11:25:46;6.35;;;4.05;;
49860;SDS011;35761;48.826;9.238;2023-03-20T11:28:18;7.43;;;3.97;;
49860;SDS011;35761;48.826;9.238;2023-03-20T11:30:48;7.47;;;4.13;;
49860;SDS011;35761;48.826;9.238;2023-03-20T11:33:30;5.72;;;4.20;;
49860;SDS011;35761;48.826;9.238;2023-03-20T11:36:04;6.70;;;4.72;;
49860;SDS011;35761;48.826;9.238;2023-03-20T11:38:42;6.70;;;4.50;;
49860;SDS011;35761;48.826;9.238;2023-03-20T11:41:18;7.47;;;4.65;;
49860;SDS011;35761;48.826;9.238;2023-03-20T11:43:50;7.57;;;4.90;;
49860;SDS011;35761;48.826;9.238;2023-03-20T11:46:19;6.30;;;4.03;;
49860;SDS011;35761;48.826;9.238;2023-03-20T11:49:00;6.57;;;4.60;;
49860;SDS011;35761;48.826;9.238;2023-03-20T11:54:04;8.02;;;4.93;;
49860;SDS011;35761;48.826;9.238;2023-03-20T11:56:34;7.85;;;4.95;;
49860;SDS011;35761;48.826;9.238;2023-03-20T11:59:06;8.13;;;5.43;;
49860;SDS011;35761;48.826;9.238;2023-03-20T12:01:40;9.90;;;5.10;;
49860;SDS011;35761;48.826;9.238;2023-03-20T12:04:13;7.60;;;5.05;;
49860;SDS011;35761;48.826;9.238;2023-03-20T12:06:46;7.50;;;4.63;;
49860;SDS011;35761;48.826;9.238;2023-03-20T12:09:22;8.53;;;5.23;;
49860;SDS011;35761;48.826;9.238;2023-03-20T12:11:55;7.80;;;5.38;;
49860;SDS011;35761;48.826;9.238;2023-03-20T12:14:30;11.00;;;5.45;;
49860;SDS011;35761;48.826;9.238;2023-03-20T12:17:23;8.27;;;4.93;;
49860;SDS011;35761;48.826;9.238;2023-03-20T12:20:00;6.10;;;3.83;;
49860;SDS011;35761;48.826;9.238;2023-03-20T12:22:34;9.13;;;4.38;;
49860;SDS011;35761;48.826;9.238;2023-03-20T12:25:08;5.35;;;3.78;;
49860;SDS011;35761;48.826;9.238;2023-03-20T12:27:44;6.05;;;4.07;;
49860;SDS011;35761;48.826;9.238;2023-03-20T12:30:18;7.28;;;4.35;;
49860;SDS011;35761;48.826;9.238;2023-03-20T12:32:51;10.20;;;4.47;;
49860;SDS011;35761;48.826;9.238;2023-03-20T12:35:25;6.87;;;4.33;;
49860;SDS011;35761;48.826;9.238;2023-03-20T12:37:56;6.82;;;4.28;;
49860;SDS011;35761;48.826;9.238;2023-03-20T12:40:27;12.40;;;6.93;;
49860;SDS011;35761;48.826;9.238;2023-03-20T12:43:04;6.53;;;4.47;;
49860;SDS011;35761;48.826;9.238;2023-03-20T12:45:39;13.25;;;7.82;;
49860;SDS011;35761;48.826;9.238;2023-03-20T12:48:16;9.23;;;5.32;;
49860;SDS011;35761;48.826;9.238;2023-03-20T12:51:01;5.88;;;4.03;;
49860;SDS011;35761;48.826;9.238;2023-03-20T12:53:41;6.28;;;4.10;;
49860;SDS011;35761;48.826;9.238;2023-03-20T12:56:16;6.18;;;4.25;;
49860;SDS011;35761;48.826;9.238;2023-03-20T12:58:55;7.15;;;4.28;;
49860;SDS011;35761;48.826;9.238;2023-03-20T13:01:28;6.57;;;4.43;;
49860;SDS011;35761;48.826;9.238;2023-03-20T13:04:03;6.30;;;4.20;;
49860;SDS011;35761;48.826;9.238;2023-03-20T13:06:42;7.68;;;4.18;;
49860;SDS011;35761;48.826;9.238;2023-03-20T13:12:26;9.13;;;4.37;;
49860;SDS011;35761;48.826;9.238;2023-03-20T13:15:00;8.27;;;4.13;;
49860;SDS011;35761;48.826;9.238;2023-03-20T13:17:41;9.00;;;4.20;;
49860;SDS011;35761;48.826;9.238;2023-03-20T13:20:20;7.13;;;3.88;;
49860;SDS011;35761;48.826;9.238;2023-03-20T13:22:54;5.47;;;3.63;;
49860;SDS011;35761;48.826;9.238;2023-03-20T13:28:24;5.32;;;3.58;;
49860;SDS011;35761;48.826;9.238;2023-03-20T13:30:58;6.38;;;3.60;;
49860;SDS011;35761;48.826;9.238;2023-03-20T13:33:34;7.40;;;3.65;;
49860;SDS011;35761;48.826;9.238;2023-03-20T13:36:10;7.47;;;3.42;;
49860;SDS011;35761;48.826;9.238;2023-03-20T13:38:44;6.97;;;3.80;;
49860;SDS011;35761;48.826;9.238;2023-03-20T13:41:16;6.00;;;3.40;;
49860;SDS011;35761;48.826;9.238;2023-03-20T13:43:46;5.40;;;3.30;;
49860;SDS011;35761;48.826;9.238;2023-03-20T13:48:49;7.03;;;3.10;;
49860;SDS011;35761;48.826;9.238;2023-03-20T13:51:21;5.13;;;3.28;;
49860;SDS011;35761;48.826;9.238;2023-03-20T13:54:00;5.10;;;3.00;;
49860;SDS011;35761;48.826;9.238;2023-03-20T13:56:39;5.57;;;2.92;;
49860;SDS011;35761;48.826;9.238;2023-03-20T14:02:11;5.28;;;3.20;;
49860;SDS011;35761;48.826;9.238;2023-03-20T14:05:00;5.78;;;3.30;;
49860;SDS011;35761;48.826;9.238;2023-03-20T14:07:32;4.43;;;2.60;;
49860;SDS011;35761;48.826;9.238;2023-03-20T14:13:09;4.38;;;2.85;;
49860;SDS011;35761;48.826;9.238;2023-03-20T14:15:44;7.15;;;2.95;;
49860;SDS011;35761;48.826;9.238;2023-03-20T14:18:20;4.55;;;2.85;;
49860;SDS011;35761;48.826;9.238;2023-03-20T14:20:52;5.22;;;2.80;;
49860;SDS011;35761;48.826;9.238;2023-03-20T14:23:27;4.43;;;2.40;;
49860;SDS011;35761;48.826;9.238;2023-03-20T14:26:06;4.63;;;2.33;;
49860;SDS011;35761;48.826;9.238;2023-03-20T14:28:44;6.25;;;3.55;;
49860;SDS011;35761;48.826;9.238;2023-03-20T14:31:22;7.97;;;4.68;;
49860;SDS011;35761;48.826;9.238;2023-03-20T14:33:53;4.30;;;2.58;;
49860;SDS011;35761;48.826;9.238;2023-03-20T14:36:43;3.75;;;2.33;;
49860;SDS011;35761;48.826;9.238;2023-03-20T14:39:18;5.20;;;2.40;;
49860;SDS011;35761;48.826;9.238;2023-03-20T14:41:56;5.00;;;2.67;;
49860;SDS011;35761;48.826;9.238;2023-03-20T14:44:37;4.07;;;2.40;;
49860;SDS011;35761;48.826;9.238;2023-03-20T14:47:19;3.72;;;2.33;;
49860;SDS011;35761;48.826;9.238;2023-03-20T14:49:54;4.07;;;2.10;;
49860;SDS011;35761;48.826;9.238;2023-03-20T14:52:32;5.72;;;2.30;;
49860;SDS011;35761;48.826;9.238;2023-03-20T14:55:23;4.28;;;2.25;;
49860;SDS011;35761;48.826;9.238;2023-03-20T14:58:02;4.10;;;2.30;;
49860;SDS011;35761;48.826;9.238;2023-03-20T15:00:54;34.63;;;21.98;;
49860;SDS011;35761;48.826;9.238;2023-03-20T15:03:29;87.07;;;51.78;;
49860;SDS011;35761;48.826;9.238;2023-03-20T15:06:02;41.72;;;22.42;;
49860;SDS011;35761;48.826;9.238;2023-03-20T15:08:33;12.02;;;4.60;;
49860;SDS011;35761;48.826;9.238;2023-03-20T15:11:04;5.20;;;3.20;;
49860;SDS011;35761;48.826;9.238;2023-03-20T15:13:35;10.20;;;6.15;;
49860;SDS011;35761;48.826;9.238;2023-03-20T15:16:08;11.85;;;5.20;;
49860;SDS011;35761;48.826;9.238;2023-03-20T15:18:39;21.48;;;13.93;;
49860;SDS011;35761;48.826;9.238;2023-03-20T15:21:11;7.68;;;3.60;;
49860;SDS011;35761;48.826;9.238;2023-03-20T15:23:41;4.10;;;2.47;;
49860;SDS011;35761;48.826;9.238;2023-03-20T15:26:10;4.28;;;2.30;;
49860;SDS011;35761;48.826;9.238;2023-03-20T15:28:40;4.80;;;2.47;;
49860;SDS011;35761;48.826;9.238;2023-03-20T15:31:18;5.57;;;2.95;;
49860;SDS011;35761;48.826;9.238;2023-03-20T15:33:50;8.45;;;2.85;;
49860;SDS011;35761;48.826;9.238;2023-03-20T15:36:20;4.68;;;2.40;;
49860;SDS011;35761;48.826;9.238;2023-03-20T15:38:50;8.35;;;3.88;;
49860;SDS011;35761;48.826;9.238;2023-03-20T15:41:23;4.90;;;2.50;;
49860;SDS011;35761;48.826;9.238;2023-03-20T15:44:01;4.43;;;2.75;;
49860;SDS011;35761;48.826;9.238;2023-03-20T15:46:32;4.25;;;1.83;;
49860;SDS011;35761;48.826;9.238;2023-03-20T15:49:01;6.40;;;2.70;;
49860;SDS011;35761;48.826;9.238;2023-03-20T15:51:31;4.50;;;2.60;;
49860;SDS011;35761;48.826;9.238;2023-03-20T15:54:01;5.72;;;2.83;;
49860;SDS011;35761;48.826;9.238;2023-03-20T15:56:33;6.50;;;3.03;;
49860;SDS011;35761;48.826;9.238;2023-03-20T16:01:38;4.30;;;2.33;;
49860;SDS011;35761;48.826;9.238;2023-03-20T16:04:08;5.35;;;2.90;;
49860;SDS011;35761;48.826;9.238;2023-03-20T16:06:43;5.13;;;2.60;;